sensor_id;sensor_type;location;lat;lon;timestamp;temperature;humidity
12682;DHT22;6405;59.208;18.216;2023-08-17T00:01:40;15.90;99.90
12682;DHT22;6405;59.208;18.216;2023-08-17T00:04:06;15.90;99.90
12682;DHT22;6405;59.208;18.216;2023-08-17T00:06:32;15.90;99.90
12682;DHT22;6405;59.208;18.216;2023-08-17T00:08:58;15.80;99.90
12682;DHT22;6405;59.208;18.216;2023-08-17T00:11:24;15.90;99.90
12682;DHT22;6405;59.208;18.216;2023-08-17T00:13:50;15.80;99.90
12682;DHT22;6405;59.208;18.216;2023-08-17T00:16:16;15.90;99.90
12682;DHT22;6405;59.208;18.216;2023-08-17T00:18:42;15.90;99.90
12682;DHT22;6405;59.208;18.216;2023-08-17T00:21:08;15.90;99.90
12682;DHT22;6405;59.208;18.216;2023-08-17T00:23:34;16.00;99.90
12682;DHT22;6405;59.208;18.216;2023-08-17T00:26:00;15.90;99.90
12682;DHT22;6405;59.208;18.216;2023-08-17T00:28:25;15.90;99.90
12682;DHT22;6405;59.208;18.216;2023-08-17T00:30:51;16.00;99.90
12682;DHT22;6405;59.208;18.216;2023-08-17T00:33:17;15.90;99.90
12682;DHT22;6405;59.208;18.216;2023-08-17T00:35:43;15.90;99.90
12682;DHT22;6405;59.208;18.216;2023-08-17T00:38:11;16.00;99.90
12682;DHT22;6405;59.208;18.216;2023-08-17T00:40:37;15.90;99.90
12682;DHT22;6405;59.208;18.216;2023-08-17T00:43:04;15.90;99.90
12682;DHT22;6405;59.208;18.216;2023-08-17T00:45:30;16.00;99.90
12682;DHT22;6405;59.208;18.216;2023-08-17T00:47:57;16.00;99.90
12682;DHT22;6405;59.208;18.216;2023-08-17T00:50:25;16.00;99.90
12682;DHT22;6405;59.208;18.216;2023-08-17T00:52:52;16.00;99.90
12682;DHT22;6405;59.208;18.216;2023-08-17T00:55:18;16.00;99.90
12682;DHT22;6405;59.208;18.216;2023-08-17T00:57:44;16.00;99.90
12682;DHT22;6405;59.208;18.216;2023-08-17T01:00:12;16.00;99.90
12682;DHT22;6405;59.208;18.216;2023-08-17T01:02:41;16.00;99.90
12682;DHT22;6405;59.208;18.216;2023-08-17T01:05:08;16.00;99.90
12682;DHT22;6405;59.208;18.216;2023-08-17T01:07:34;16.00;99.90
12682;DHT22;6405;59.208;18.216;2023-08-17T01:10:01;16.10;99.90
12682;DHT22;6405;59.208;18.216;2023-08-17T01:15:31;16.10;99.90
12682;DHT22;6405;59.208;18.216;2023-08-17T01:21:16;16.10;99.90
12682;DHT22;6405;59.208;18.216;2023-08-17T01:23:46;16.10;99.90
12682;DHT22;6405;59.208;18.216;2023-08-17T01:26:12;16.10;99.90
12682;DHT22;6405;59.208;18.216;2023-08-17T01:28:45;16.10;99.90
12682;DHT22;6405;59.208;18.216;2023-08-17T01:32:18;16.10;99.90
12682;DHT22;6405;59.208;18.216;2023-08-17T01:34:25;16.00;99.90
12682;DHT22;6405;59.208;18.216;2023-08-17T01:36:56;16.10;99.90
12682;DHT22;6405;59.208;18.216;2023-08-17T01:39:36;16.00;99.90
12682;DHT22;6405;59.208;18.216;2023-08-17T01:42:03;16.00;99.90
12682;DHT22;6405;59.208;18.216;2023-08-17T01:44:30;16.10;99.90
12682;DHT22;6405;59.208;18.216;2023-08-17T01:46:56;16.10;99.90
12682;DHT22;6405;59.208;18.216;2023-08-17T01:49:22;16.10;99.90
12682;DHT22;6405;59.208;18.216;2023-08-17T01:51:48;16.10;99.90
12682;DHT22;6405;59.208;18.216;2023-08-17T01:54:13;16.10;99.90
12682;DHT22;6405;59.208;18.216;2023-08-17T01:56:39;16.10;99.90
12682;DHT22;6405;59.208;18.216;2023-08-17T01:59:05;16.10;99.90
12682;DHT22;6405;59.208;18.216;2023-08-17T02:01:31;16.10;99.90
12682;DHT22;6405;59.208;18.216;2023-08-17T02:03:56;16.20;99.90
12682;DHT22;6405;59.208;18.216;2023-08-17T02:06:22;16.20;99.90
12682;DHT22;6405;59.208;18.216;2023-08-17T02:08:48;16.10;99.90
12682;DHT22;6405;59.208;18.216;2023-08-17T02:11:13;16.10;99.90
12682;DHT22;6405;59.208;18.216;2023-08-17T02:13:39;16.20;99.90
12682;DHT22;6405;59.208;18.216;2023-08-17T02:16:05;16.20;99.90
12682;DHT22;6405;59.208;18.216;2023-08-17T02:18:31;16.20;99.90
12682;DHT22;6405;59.208;18.216;2023-08-17T02:20:58;16.20;99.90
12682;DHT22;6405;59.208;18.216;2023-08-17T02:23:24;16.20;99.90
12682;DHT22;6405;59.208;18.216;2023-08-17T02:25:50;16.20;99.90
12682;DHT22;6405;59.208;18.216;2023-08-17T02:28:15;16.20;99.90
12682;DHT22;6405;59.208;18.216;2023-08-17T02:30:41;16.20;99.90
12682;DHT22;6405;59.208;18.216;2023-08-17T02:33:07;16.20;99.90
12682;DHT22;6405;59.208;18.216;2023-08-17T02:35:33;16.10;99.90
12682;DHT22;6405;59.208;18.216;2023-08-17T02:37:59;16.10;99.90
12682;DHT22;6405;59.208;18.216;2023-08-17T02:40:24;16.10;99.90
12682;DHT22;6405;59.208;18.216;2023-08-17T02:42:50;16.10;99.90
12682;DHT22;6405;59.208;18.216;2023-08-17T02:45:16;16.10;99.90
12682;DHT22;6405;59.208;18.216;2023-08-17T02:47:42;16.10;99.90
12682;DHT22;6405;59.208;18.216;2023-08-17T02:50:08;16.10;99.90
12682;DHT22;6405;59.208;18.216;2023-08-17T02:52:34;16.10;99.90
12682;DHT22;6405;59.208;18.216;2023-08-17T02:54:59;16.10;99.90
12682;DHT22;6405;59.208;18.216;2023-08-17T02:57:25;16.10;99.90
12682;DHT22;6405;59.208;18.216;2023-08-17T02:59:51;16.10;99.90
12682;DHT22;6405;59.208;18.216;2023-08-17T03:02:16;16.10;99.90
12682;DHT22;6405;59.208;18.216;2023-08-17T03:04:42;16.00;99.90
12682;DHT22;6405;59.208;18.216;2023-08-17T03:07:08;16.10;99.90
12682;DHT22;6405;59.208;18.216;2023-08-17T03:09:34;16.00;99.90
12682;DHT22;6405;59.208;18.216;2023-08-17T03:12:00;16.00;99.90
12682;DHT22;6405;59.208;18.216;2023-08-17T03:14:25;16.00;99.90
12682;DHT22;6405;59.208;18.216;2023-08-17T03:16:51;16.00;99.90
12682;DHT22;6405;59.208;18.216;2023-08-17T03:19:17;16.00;99.90
12682;DHT22;6405;59.208;18.216;2023-08-17T03:21:43;16.00;99.90
12682;DHT22;6405;59.208;18.216;2023-08-17T03:24:08;16.00;99.90
12682;DHT22;6405;59.208;18.216;2023-08-17T03:26:34;16.00;99.90
12682;DHT22;6405;59.208;18.216;2023-08-17T03:29:00;16.00;99.90
12682;DHT22;6405;59.208;18.216;2023-08-17T03:31:26;16.00;99.90
12682;DHT22;6405;59.208;18.216;2023-08-17T03:33:51;16.00;99.90
12682;DHT22;6405;59.208;18.216;2023-08-17T03:36:17;16.00;99.90
12682;DHT22;6405;59.208;18.216;2023-08-17T03:38:43;16.10;99.90
12682;DHT22;6405;59.208;18.216;2023-08-17T03:41:09;16.10;99.90
12682;DHT22;6405;59.208;18.216;2023-08-17T03:43:35;16.10;99.90
12682;DHT22;6405;59.208;18.216;2023-08-17T03:46:01;16.10;99.90
12682;DHT22;6405;59.208;18.216;2023-08-17T03:48:27;16.10;99.90
12682;DHT22;6405;59.208;18.216;2023-08-17T03:50:54;16.00;99.90
12682;DHT22;6405;59.208;18.216;2023-08-17T03:53:20;16.00;99.90
12682;DHT22;6405;59.208;18.216;2023-08-17T03:55:48;16.00;99.90
12682;DHT22;6405;59.208;18.216;2023-08-17T03:58:14;16.00;99.90
12682;DHT22;6405;59.208;18.216;2023-08-17T04:00:40;16.00;99.90
12682;DHT22;6405;59.208;18.216;2023-08-17T04:03:06;16.10;99.90
12682;DHT22;6405;59.208;18.216;2023-08-17T04:05:32;16.10;99.90
12682;DHT22;6405;59.208;18.216;2023-08-17T04:08:00;16.10;99.90
12682;DHT22;6405;59.208;18.216;2023-08-17T04:10:28;16.20;99.90
12682;DHT22;6405;59.208;18.216;2023-08-17T04:12:55;16.20;99.90
12682;DHT22;6405;59.208;18.216;2023-08-17T04:15:21;16.30;99.90
12682;DHT22;6405;59.208;18.216;2023-08-17T04:17:47;16.30;99.90
12682;DHT22;6405;59.208;18.216;2023-08-17T04:20:13;16.30;99.90
12682;DHT22;6405;59.208;18.216;2023-08-17T04:22:38;16.40;99.90
12682;DHT22;6405;59.208;18.216;2023-08-17T04:25:04;16.40;99.90
12682;DHT22;6405;59.208;18.216;2023-08-17T04:27:30;16.40;99.90
12682;DHT22;6405;59.208;18.216;2023-08-17T04:29:57;16.40;99.90
12682;DHT22;6405;59.208;18.216;2023-08-17T04:32:22;16.40;99.90
12682;DHT22;6405;59.208;18.216;2023-08-17T04:34:48;16.50;99.90
12682;DHT22;6405;59.208;18.216;2023-08-17T04:37:15;16.50;99.90
12682;DHT22;6405;59.208;18.216;2023-08-17T04:39:41;16.50;99.90
12682;DHT22;6405;59.208;18.216;2023-08-17T04:42:09;16.60;99.90
12682;DHT22;6405;59.208;18.216;2023-08-17T04:44:35;16.60;99.90
12682;DHT22;6405;59.208;18.216;2023-08-17T04:47:00;16.60;99.90
12682;DHT22;6405;59.208;18.216;2023-08-17T04:49:26;16.60;99.90
12682;DHT22;6405;59.208;18.216;2023-08-17T04:51:52;16.60;99.90
12682;DHT22;6405;59.208;18.216;2023-08-17T04:54:18;16.70;99.90
12682;DHT22;6405;59.208;18.216;2023-08-17T04:56:44;16.70;99.90
12682;DHT22;6405;59.208;18.216;2023-08-17T04:59:10;16.70;99.90
12682;DHT22;6405;59.208;18.216;2023-08-17T05:01:35;16.70;99.90
12682;DHT22;6405;59.208;18.216;2023-08-17T05:04:03;16.70;99.90
12682;DHT22;6405;59.208;18.216;2023-08-17T05:06:29;16.70;99.90
12682;DHT22;6405;59.208;18.216;2023-08-17T05:08:54;16.60;99.90
12682;DHT22;6405;59.208;18.216;2023-08-17T05:11:20;16.70;99.90
12682;DHT22;6405;59.208;18.216;2023-08-17T05:13:46;16.80;99.90
12682;DHT22;6405;59.208;18.216;2023-08-17T05:16:12;16.90;99.90
12682;DHT22;6405;59.208;18.216;2023-08-17T05:18:38;17.00;99.90
12682;DHT22;6405;59.208;18.216;2023-08-17T05:21:04;17.00;99.90
12682;DHT22;6405;59.208;18.216;2023-08-17T05:23:29;17.00;99.90
12682;DHT22;6405;59.208;18.216;2023-08-17T05:25:55;17.00;99.90
12682;DHT22;6405;59.208;18.216;2023-08-17T05:28:21;17.00;99.90
12682;DHT22;6405;59.208;18.216;2023-08-17T05:30:47;16.90;99.90
12682;DHT22;6405;59.208;18.216;2023-08-17T05:33:12;17.00;99.90
12682;DHT22;6405;59.208;18.216;2023-08-17T05:35:38;17.10;99.90
12682;DHT22;6405;59.208;18.216;2023-08-17T05:38:04;17.10;99.90
12682;DHT22;6405;59.208;18.216;2023-08-17T05:40:30;17.10;99.90
12682;DHT22;6405;59.208;18.216;2023-08-17T05:42:56;17.10;99.90
12682;DHT22;6405;59.208;18.216;2023-08-17T05:45:22;17.20;99.90
12682;DHT22;6405;59.208;18.216;2023-08-17T05:47:48;17.20;99.90
12682;DHT22;6405;59.208;18.216;2023-08-17T05:50:13;17.20;99.90
12682;DHT22;6405;59.208;18.216;2023-08-17T05:52:41;17.20;99.90
12682;DHT22;6405;59.208;18.216;2023-08-17T05:55:07;17.30;99.90
12682;DHT22;6405;59.208;18.216;2023-08-17T05:57:34;17.20;99.90
12682;DHT22;6405;59.208;18.216;2023-08-17T05:59:59;17.30;99.90
12682;DHT22;6405;59.208;18.216;2023-08-17T06:02:25;17.30;99.90
12682;DHT22;6405;59.208;18.216;2023-08-17T06:04:51;17.40;99.90
12682;DHT22;6405;59.208;18.216;2023-08-17T06:07:17;17.40;99.90
12682;DHT22;6405;59.208;18.216;2023-08-17T06:09:43;17.40;99.90
12682;DHT22;6405;59.208;18.216;2023-08-17T06:12:08;17.50;99.90
12682;DHT22;6405;59.208;18.216;2023-08-17T06:14:34;17.50;99.90
12682;DHT22;6405;59.208;18.216;2023-08-17T06:17:00;17.50;99.90
12682;DHT22;6405;59.208;18.216;2023-08-17T06:19:26;17.50;99.90
12682;DHT22;6405;59.208;18.216;2023-08-17T06:21:52;17.60;99.90
12682;DHT22;6405;59.208;18.216;2023-08-17T06:24:18;17.70;99.90
12682;DHT22;6405;59.208;18.216;2023-08-17T06:26:44;17.70;99.90
12682;DHT22;6405;59.208;18.216;2023-08-17T06:29:11;17.80;99.90
12682;DHT22;6405;59.208;18.216;2023-08-17T06:31:37;17.80;99.90
12682;DHT22;6405;59.208;18.216;2023-08-17T06:34:03;17.90;99.90
12682;DHT22;6405;59.208;18.216;2023-08-17T06:36:32;17.90;99.90
12682;DHT22;6405;59.208;18.216;2023-08-17T06:38:58;18.10;99.90
12682;DHT22;6405;59.208;18.216;2023-08-17T06:41:24;18.10;99.90
12682;DHT22;6405;59.208;18.216;2023-08-17T06:43:51;18.30;99.90
12682;DHT22;6405;59.208;18.216;2023-08-17T06:46:17;18.30;99.90
12682;DHT22;6405;59.208;18.216;2023-08-17T06:48:43;18.40;99.90
12682;DHT22;6405;59.208;18.216;2023-08-17T06:51:09;18.40;99.90
12682;DHT22;6405;59.208;18.216;2023-08-17T06:53:35;18.50;99.90
12682;DHT22;6405;59.208;18.216;2023-08-17T06:56:00;18.40;99.90
12682;DHT22;6405;59.208;18.216;2023-08-17T06:58:26;18.40;99.90
12682;DHT22;6405;59.208;18.216;2023-08-17T07:00:52;18.40;99.90
12682;DHT22;6405;59.208;18.216;2023-08-17T07:03:18;18.50;99.90
12682;DHT22;6405;59.208;18.216;2023-08-17T07:05:44;18.60;99.90
12682;DHT22;6405;59.208;18.216;2023-08-17T07:08:10;18.70;99.90
12682;DHT22;6405;59.208;18.216;2023-08-17T07:10:36;18.80;99.90
12682;DHT22;6405;59.208;18.216;2023-08-17T07:13:01;18.70;99.90
12682;DHT22;6405;59.208;18.216;2023-08-17T07:15:30;18.70;99.90
12682;DHT22;6405;59.208;18.216;2023-08-17T07:17:56;18.80;99.90
12682;DHT22;6405;59.208;18.216;2023-08-17T07:20:21;18.80;99.90
12682;DHT22;6405;59.208;18.216;2023-08-17T07:22:47;19.00;99.90
12682;DHT22;6405;59.208;18.216;2023-08-17T07:25:13;19.10;99.90
12682;DHT22;6405;59.208;18.216;2023-08-17T07:27:39;19.20;99.90
12682;DHT22;6405;59.208;18.216;2023-08-17T07:30:05;19.20;99.90
12682;DHT22;6405;59.208;18.216;2023-08-17T07:32:31;19.30;99.90
12682;DHT22;6405;59.208;18.216;2023-08-17T07:34:57;19.30;99.90
12682;DHT22;6405;59.208;18.216;2023-08-17T07:37:23;19.20;99.90
12682;DHT22;6405;59.208;18.216;2023-08-17T07:39:49;19.30;99.90
12682;DHT22;6405;59.208;18.216;2023-08-17T07:42:14;19.40;99.90
12682;DHT22;6405;59.208;18.216;2023-08-17T07:44:40;19.50;99.90
12682;DHT22;6405;59.208;18.216;2023-08-17T07:47:07;19.60;99.90
12682;DHT22;6405;59.208;18.216;2023-08-17T07:49:33;19.50;99.90
12682;DHT22;6405;59.208;18.216;2023-08-17T07:51:59;19.50;99.90
12682;DHT22;6405;59.208;18.216;2023-08-17T07:54:25;19.60;99.90
12682;DHT22;6405;59.208;18.216;2023-08-17T07:56:50;19.60;99.90
12682;DHT22;6405;59.208;18.216;2023-08-17T07:59:16;19.60;99.90
12682;DHT22;6405;59.208;18.216;2023-08-17T08:01:42;19.70;99.90
12682;DHT22;6405;59.208;18.216;2023-08-17T08:04:07;19.70;99.90
12682;DHT22;6405;59.208;18.216;2023-08-17T08:06:33;19.70;99.90
12682;DHT22;6405;59.208;18.216;2023-08-17T08:08:59;19.70;99.90
12682;DHT22;6405;59.208;18.216;2023-08-17T08:11:25;19.70;99.90
12682;DHT22;6405;59.208;18.216;2023-08-17T08:13:53;19.90;99.90
12682;DHT22;6405;59.208;18.216;2023-08-17T08:16:18;20.10;99.90
12682;DHT22;6405;59.208;18.216;2023-08-17T08:18:44;20.20;99.90
12682;DHT22;6405;59.208;18.216;2023-08-17T08:21:10;20.20;99.90
12682;DHT22;6405;59.208;18.216;2023-08-17T08:23:35;20.30;99.90
12682;DHT22;6405;59.208;18.216;2023-08-17T08:26:02;20.30;99.90
12682;DHT22;6405;59.208;18.216;2023-08-17T08:28:28;20.20;99.90
12682;DHT22;6405;59.208;18.216;2023-08-17T08:30:53;20.60;99.90
12682;DHT22;6405;59.208;18.216;2023-08-17T08:33:19;21.00;99.90
12682;DHT22;6405;59.208;18.216;2023-08-17T08:35:45;21.40;99.90
12682;DHT22;6405;59.208;18.216;2023-08-17T08:38:11;21.20;99.90
12682;DHT22;6405;59.208;18.216;2023-08-17T08:40:37;21.20;99.90
12682;DHT22;6405;59.208;18.216;2023-08-17T08:43:04;21.00;99.90
12682;DHT22;6405;59.208;18.216;2023-08-17T08:45:30;20.70;99.90
12682;DHT22;6405;59.208;18.216;2023-08-17T08:47:57;20.50;99.90
12682;DHT22;6405;59.208;18.216;2023-08-17T08:50:26;20.90;99.90
12682;DHT22;6405;59.208;18.216;2023-08-17T08:52:59;21.30;99.90
12682;DHT22;6405;59.208;18.216;2023-08-17T08:55:49;21.50;99.90
12682;DHT22;6405;59.208;18.216;2023-08-17T08:58:19;21.10;99.90
12682;DHT22;6405;59.208;18.216;2023-08-17T09:00:48;20.80;99.90
12682;DHT22;6405;59.208;18.216;2023-08-17T09:03:15;20.60;99.90
12682;DHT22;6405;59.208;18.216;2023-08-17T09:05:49;20.50;99.90
12682;DHT22;6405;59.208;18.216;2023-08-17T09:08:21;20.60;99.90
12682;DHT22;6405;59.208;18.216;2023-08-17T09:10:48;20.70;99.90
12682;DHT22;6405;59.208;18.216;2023-08-17T09:13:14;20.80;99.90
12682;DHT22;6405;59.208;18.216;2023-08-17T09:15:41;20.90;99.90
12682;DHT22;6405;59.208;18.216;2023-08-17T09:18:06;20.90;99.90
12682;DHT22;6405;59.208;18.216;2023-08-17T09:20:39;20.90;99.90
12682;DHT22;6405;59.208;18.216;2023-08-17T09:23:13;21.00;99.90
12682;DHT22;6405;59.208;18.216;2023-08-17T09:25:41;21.10;99.90
12682;DHT22;6405;59.208;18.216;2023-08-17T09:28:18;21.20;99.90
12682;DHT22;6405;59.208;18.216;2023-08-17T09:30:53;21.10;99.90
12682;DHT22;6405;59.208;18.216;2023-08-17T09:33:21;21.00;99.90
12682;DHT22;6405;59.208;18.216;2023-08-17T09:35:49;21.10;99.90
12682;DHT22;6405;59.208;18.216;2023-08-17T09:38:15;21.00;99.90
12682;DHT22;6405;59.208;18.216;2023-08-17T09:40:40;21.00;99.90
12682;DHT22;6405;59.208;18.216;2023-08-17T09:43:06;20.80;99.90
12682;DHT22;6405;59.208;18.216;2023-08-17T09:45:33;20.80;99.90
12682;DHT22;6405;59.208;18.216;2023-08-17T09:47:59;20.80;99.90
12682;DHT22;6405;59.208;18.216;2023-08-17T09:50:26;20.70;99.90
12682;DHT22;6405;59.208;18.216;2023-08-17T09:52:54;20.60;99.90
12682;DHT22;6405;59.208;18.216;2023-08-17T09:55:22;20.60;99.90
12682;DHT22;6405;59.208;18.216;2023-08-17T09:57:51;20.60;99.90
12682;DHT22;6405;59.208;18.216;2023-08-17T10:00:19;20.60;99.90
12682;DHT22;6405;59.208;18.216;2023-08-17T10:02:45;20.70;99.90
12682;DHT22;6405;59.208;18.216;2023-08-17T10:05:15;20.70;99.90
12682;DHT22;6405;59.208;18.216;2023-08-17T10:07:45;20.80;99.90
12682;DHT22;6405;59.208;18.216;2023-08-17T10:10:12;20.90;99.90
12682;DHT22;6405;59.208;18.216;2023-08-17T10:12:49;21.10;99.90
12682;DHT22;6405;59.208;18.216;2023-08-17T10:15:18;21.10;99.90
12682;DHT22;6405;59.208;18.216;2023-08-17T10:18:13;21.20;99.90
12682;DHT22;6405;59.208;18.216;2023-08-17T10:20:43;21.30;99.90
12682;DHT22;6405;59.208;18.216;2023-08-17T10:23:15;21.40;99.90
12682;DHT22;6405;59.208;18.216;2023-08-17T10:25:42;21.40;99.90
12682;DHT22;6405;59.208;18.216;2023-08-17T10:28:12;21.40;99.90
12682;DHT22;6405;59.208;18.216;2023-08-17T10:30:38;21.50;99.90
12682;DHT22;6405;59.208;18.216;2023-08-17T10:33:05;21.60;99.90
12682;DHT22;6405;59.208;18.216;2023-08-17T10:35:33;21.60;99.90
12682;DHT22;6405;59.208;18.216;2023-08-17T10:37:59;21.70;99.90
12682;DHT22;6405;59.208;18.216;2023-08-17T10:40:34;21.70;99.90
12682;DHT22;6405;59.208;18.216;2023-08-17T10:43:00;21.60;99.90
12682;DHT22;6405;59.208;18.216;2023-08-17T10:45:30;21.70;99.90
12682;DHT22;6405;59.208;18.216;2023-08-17T10:50:31;21.90;99.90
12682;DHT22;6405;59.208;18.216;2023-08-17T10:52:59;21.90;99.90
12682;DHT22;6405;59.208;18.216;2023-08-17T10:55:40;22.00;99.90
12682;DHT22;6405;59.208;18.216;2023-08-17T10:58:07;21.80;99.90
12682;DHT22;6405;59.208;18.216;2023-08-17T11:00:38;21.90;99.90
12682;DHT22;6405;59.208;18.216;2023-08-17T11:03:18;22.10;99.90
12682;DHT22;6405;59.208;18.216;2023-08-17T11:05:48;22.00;99.90
12682;DHT22;6405;59.208;18.216;2023-08-17T11:08:23;22.20;99.90
12682;DHT22;6405;59.208;18.216;2023-08-17T11:11:12;22.30;99.90
12682;DHT22;6405;59.208;18.216;2023-08-17T11:13:46;22.00;99.90
12682;DHT22;6405;59.208;18.216;2023-08-17T11:16:16;22.00;99.90
12682;DHT22;6405;59.208;18.216;2023-08-17T11:18:42;21.80;99.90
12682;DHT22;6405;59.208;18.216;2023-08-17T11:21:10;21.60;99.90
12682;DHT22;6405;59.208;18.216;2023-08-17T11:23:37;21.50;99.90
12682;DHT22;6405;59.208;18.216;2023-08-17T11:26:03;21.20;99.90
12682;DHT22;6405;59.208;18.216;2023-08-17T11:28:30;21.20;99.90
12682;DHT22;6405;59.208;18.216;2023-08-17T11:31:11;21.10;99.90
12682;DHT22;6405;59.208;18.216;2023-08-17T11:33:38;21.20;99.90
12682;DHT22;6405;59.208;18.216;2023-08-17T11:36:07;21.30;99.90
12682;DHT22;6405;59.208;18.216;2023-08-17T11:38:37;21.40;99.90
12682;DHT22;6405;59.208;18.216;2023-08-17T11:41:03;21.50;99.90
12682;DHT22;6405;59.208;18.216;2023-08-17T11:43:31;21.50;99.90
12682;DHT22;6405;59.208;18.216;2023-08-17T11:45:57;21.50;99.90
12682;DHT22;6405;59.208;18.216;2023-08-17T11:48:26;21.40;99.90
12682;DHT22;6405;59.208;18.216;2023-08-17T11:50:53;21.30;99.90
12682;DHT22;6405;59.208;18.216;2023-08-17T11:53:20;21.30;99.90
12682;DHT22;6405;59.208;18.216;2023-08-17T11:55:46;21.30;99.90
12682;DHT22;6405;59.208;18.216;2023-08-17T11:58:12;21.30;99.90
12682;DHT22;6405;59.208;18.216;2023-08-17T12:00:42;21.30;99.90
12682;DHT22;6405;59.208;18.216;2023-08-17T12:03:15;21.20;99.90
12682;DHT22;6405;59.208;18.216;2023-08-17T12:05:44;21.20;99.90
12682;DHT22;6405;59.208;18.216;2023-08-17T12:08:12;21.20;99.90
12682;DHT22;6405;59.208;18.216;2023-08-17T12:10:39;21.30;99.90
12682;DHT22;6405;59.208;18.216;2023-08-17T12:13:05;21.40;99.90
12682;DHT22;6405;59.208;18.216;2023-08-17T12:15:32;21.60;99.90
12682;DHT22;6405;59.208;18.216;2023-08-17T12:18:00;22.00;99.90
12682;DHT22;6405;59.208;18.216;2023-08-17T12:20:26;22.60;99.90
12682;DHT22;6405;59.208;18.216;2023-08-17T12:22:52;23.10;99.90
12682;DHT22;6405;59.208;18.216;2023-08-17T12:25:21;23.20;99.90
12682;DHT22;6405;59.208;18.216;2023-08-17T12:27:48;22.90;99.90
12682;DHT22;6405;59.208;18.216;2023-08-17T12:32:52;22.80;99.90
12682;DHT22;6405;59.208;18.216;2023-08-17T12:35:17;23.20;99.90
12682;DHT22;6405;59.208;18.216;2023-08-17T12:37:44;23.30;99.90
12682;DHT22;6405;59.208;18.216;2023-08-17T12:40:10;23.10;99.90
12682;DHT22;6405;59.208;18.216;2023-08-17T12:42:36;23.00;99.90
12682;DHT22;6405;59.208;18.216;2023-08-17T12:45:02;22.80;99.90
12682;DHT22;6405;59.208;18.216;2023-08-17T12:47:28;22.70;99.90
12682;DHT22;6405;59.208;18.216;2023-08-17T12:49:54;22.50;99.90
12682;DHT22;6405;59.208;18.216;2023-08-17T12:52:19;22.40;99.90
12682;DHT22;6405;59.208;18.216;2023-08-17T12:54:45;22.50;99.90
12682;DHT22;6405;59.208;18.216;2023-08-17T12:57:11;23.00;99.90
12682;DHT22;6405;59.208;18.216;2023-08-17T12:59:36;23.30;99.90
12682;DHT22;6405;59.208;18.216;2023-08-17T13:02:02;23.80;99.90
12682;DHT22;6405;59.208;18.216;2023-08-17T13:04:28;23.60;99.90
12682;DHT22;6405;59.208;18.216;2023-08-17T13:06:54;23.50;99.90
12682;DHT22;6405;59.208;18.216;2023-08-17T13:09:21;23.20;99.90
12682;DHT22;6405;59.208;18.216;2023-08-17T13:11:46;23.10;99.90
12682;DHT22;6405;59.208;18.216;2023-08-17T13:14:14;22.80;99.90
12682;DHT22;6405;59.208;18.216;2023-08-17T13:16:41;22.80;99.90
12682;DHT22;6405;59.208;18.216;2023-08-17T13:19:07;22.70;99.90
12682;DHT22;6405;59.208;18.216;2023-08-17T13:21:32;22.60;99.90
12682;DHT22;6405;59.208;18.216;2023-08-17T13:23:58;22.60;99.90
12682;DHT22;6405;59.208;18.216;2023-08-17T13:26:24;22.50;99.90
12682;DHT22;6405;59.208;18.216;2023-08-17T13:28:50;22.60;99.90
12682;DHT22;6405;59.208;18.216;2023-08-17T13:31:16;22.70;99.90
12682;DHT22;6405;59.208;18.216;2023-08-17T13:33:41;22.80;99.90
12682;DHT22;6405;59.208;18.216;2023-08-17T13:36:07;22.80;99.90
12682;DHT22;6405;59.208;18.216;2023-08-17T13:38:33;23.00;99.90
12682;DHT22;6405;59.208;18.216;2023-08-17T13:40:59;22.90;99.90
12682;DHT22;6405;59.208;18.216;2023-08-17T13:43:24;22.80;99.90
12682;DHT22;6405;59.208;18.216;2023-08-17T13:45:50;22.60;99.90
12682;DHT22;6405;59.208;18.216;2023-08-17T13:48:16;22.50;99.90
12682;DHT22;6405;59.208;18.216;2023-08-17T13:50:42;22.30;99.90
12682;DHT22;6405;59.208;18.216;2023-08-17T13:53:07;22.20;99.90
12682;DHT22;6405;59.208;18.216;2023-08-17T13:55:33;22.20;99.90
12682;DHT22;6405;59.208;18.216;2023-08-17T13:57:59;22.10;99.90
12682;DHT22;6405;59.208;18.216;2023-08-17T14:00:28;22.20;99.90
12682;DHT22;6405;59.208;18.216;2023-08-17T14:02:54;22.30;99.90
12682;DHT22;6405;59.208;18.216;2023-08-17T14:05:19;22.40;99.90
12682;DHT22;6405;59.208;18.216;2023-08-17T14:07:47;22.50;99.90
12682;DHT22;6405;59.208;18.216;2023-08-17T14:10:14;22.50;99.90
12682;DHT22;6405;59.208;18.216;2023-08-17T14:12:40;22.60;99.90
12682;DHT22;6405;59.208;18.216;2023-08-17T14:15:06;22.90;99.90
12682;DHT22;6405;59.208;18.216;2023-08-17T14:17:32;23.10;99.90
12682;DHT22;6405;59.208;18.216;2023-08-17T14:19:58;23.30;99.90
12682;DHT22;6405;59.208;18.216;2023-08-17T14:22:25;23.30;99.90
12682;DHT22;6405;59.208;18.216;2023-08-17T14:24:51;23.20;99.90
12682;DHT22;6405;59.208;18.216;2023-08-17T14:27:16;23.10;99.90
12682;DHT22;6405;59.208;18.216;2023-08-17T14:29:42;23.10;99.90
12682;DHT22;6405;59.208;18.216;2023-08-17T14:32:08;23.00;99.90
12682;DHT22;6405;59.208;18.216;2023-08-17T14:34:34;22.90;99.90
12682;DHT22;6405;59.208;18.216;2023-08-17T14:36:59;22.90;99.90
12682;DHT22;6405;59.208;18.216;2023-08-17T14:39:25;22.90;99.90
12682;DHT22;6405;59.208;18.216;2023-08-17T14:41:51;22.90;99.90
12682;DHT22;6405;59.208;18.216;2023-08-17T14:44:18;22.70;99.90
12682;DHT22;6405;59.208;18.216;2023-08-17T14:46:43;22.60;99.90
12682;DHT22;6405;59.208;18.216;2023-08-17T14:49:09;22.50;99.90
12682;DHT22;6405;59.208;18.216;2023-08-17T14:51:39;22.20;99.90
12682;DHT22;6405;59.208;18.216;2023-08-17T14:54:08;22.20;99.90
12682;DHT22;6405;59.208;18.216;2023-08-17T14:56:34;22.00;99.90
12682;DHT22;6405;59.208;18.216;2023-08-17T14:59:00;21.90;99.90
12682;DHT22;6405;59.208;18.216;2023-08-17T15:01:27;21.80;99.90
12682;DHT22;6405;59.208;18.216;2023-08-17T15:03:53;21.70;99.90
12682;DHT22;6405;59.208;18.216;2023-08-17T15:06:19;21.60;99.90
12682;DHT22;6405;59.208;18.216;2023-08-17T15:08:49;21.50;99.90
12682;DHT22;6405;59.208;18.216;2023-08-17T15:11:15;21.40;99.90
12682;DHT22;6405;59.208;18.216;2023-08-17T15:13:41;21.50;99.90
12682;DHT22;6405;59.208;18.216;2023-08-17T15:16:08;21.70;99.90
12682;DHT22;6405;59.208;18.216;2023-08-17T15:18:34;21.70;99.90
12682;DHT22;6405;59.208;18.216;2023-08-17T15:21:00;21.80;99.90
12682;DHT22;6405;59.208;18.216;2023-08-17T15:23:25;21.70;99.90
12682;DHT22;6405;59.208;18.216;2023-08-17T15:25:51;21.50;99.90
12682;DHT22;6405;59.208;18.216;2023-08-17T15:28:17;21.20;99.90
12682;DHT22;6405;59.208;18.216;2023-08-17T15:30:43;21.00;99.90
12682;DHT22;6405;59.208;18.216;2023-08-17T15:33:08;20.90;99.90
12682;DHT22;6405;59.208;18.216;2023-08-17T15:35:34;20.70;99.90
12682;DHT22;6405;59.208;18.216;2023-08-17T15:38:00;20.60;99.90
12682;DHT22;6405;59.208;18.216;2023-08-17T15:40:26;20.60;99.90